createdAt,value
2022-12-25T00:01:12.480Z,12.23
2022-12-25T00:03:41.467Z,11.73
2022-12-25T00:06:10.188Z,13.00
2022-12-25T00:08:40.044Z,12.40
2022-12-25T00:11:10.313Z,11.87
2022-12-25T00:13:40.731Z,10.83
2022-12-25T00:16:11.245Z,12.57
2022-12-25T00:18:40.024Z,11.30
2022-12-25T00:21:09.084Z,13.73
2022-12-25T00:23:37.925Z,13.37
2022-12-25T00:26:08.096Z,13.63
2022-12-25T00:28:37.117Z,13.20
2022-12-25T00:31:08.532Z,11.60
2022-12-25T00:33:37.795Z,10.83
2022-12-25T00:36:08.025Z,12.13
2022-12-25T00:38:38.552Z,12.27
2022-12-25T00:41:10.347Z,11.50
2022-12-25T00:43:39.642Z,11.70
2022-12-25T00:46:11.141Z,10.97
2022-12-25T00:48:40.058Z,11.97
2022-12-25T00:51:12.757Z,12.20
2022-12-25T00:53:41.505Z,11.73
2022-12-25T00:56:11.438Z,13.27
2022-12-25T00:58:40.100Z,10.30
2022-12-25T01:01:12.386Z,12.87
2022-12-25T01:03:41.161Z,11.67
2022-12-25T01:06:12.840Z,11.83
2022-12-25T01:09:03.579Z,12.23
2022-12-25T01:11:32.135Z,10.47
2022-12-25T01:14:00.837Z,11.47
2022-12-25T01:16:31.308Z,13.07
2022-12-25T01:19:00.308Z,12.60
2022-12-25T01:21:29.376Z,12.47
2022-12-25T01:23:58.210Z,12.50
2022-12-25T01:26:28.288Z,12.23
2022-12-25T01:28:57.047Z,12.47
2022-12-25T01:31:26.395Z,11.90
2022-12-25T01:33:56.434Z,11.13
2022-12-25T01:36:26.888Z,11.07
2022-12-25T01:38:55.948Z,11.93
2022-12-25T01:41:27.484Z,12.93
2022-12-25T01:44:06.884Z,12.37
2022-12-25T01:46:36.573Z,13.17
2022-12-25T01:49:10.768Z,12.33
2022-12-25T01:51:42.826Z,11.43
2022-12-25T01:54:16.501Z,12.57
2022-12-25T01:56:47.067Z,12.97
2022-12-25T01:59:19.609Z,14.83
2022-12-25T02:01:48.982Z,11.87
2022-12-25T02:04:38.732Z,13.47
2022-12-25T02:07:09.584Z,13.83
2022-12-25T02:09:39.016Z,13.57
2022-12-25T02:12:08.842Z,13.33
2022-12-25T02:14:38.922Z,14.23
2022-12-25T02:17:13.892Z,15.30
2022-12-25T02:20:17.892Z,11.80
2022-12-25T02:22:57.733Z,13.27
2022-12-25T02:25:43.914Z,15.40
2022-12-25T02:28:20.982Z,13.23
2022-12-25T02:30:56.417Z,12.43
2022-12-25T02:33:48.165Z,15.10
2022-12-25T02:36:22.115Z,13.47
2022-12-25T02:39:13.936Z,11.83
2022-12-25T02:41:47.002Z,12.80
2022-12-25T02:44:48.579Z,12.33
2022-12-25T02:47:36.241Z,15.27
2022-12-25T02:50:35.365Z,13.60
2022-12-25T02:53:23.337Z,12.37
2022-12-25T02:56:11.495Z,12.90
2022-12-25T02:59:00.845Z,12.80
2022-12-25T03:01:51.448Z,12.37
2022-12-25T03:04:43.129Z,12.17
2022-12-25T03:07:14.706Z,14.17
2022-12-25T03:10:09.310Z,12.80
2022-12-25T03:12:43.641Z,13.40
2022-12-25T03:15:43.024Z,13.13
2022-12-25T03:18:18.237Z,13.80
2022-12-25T03:21:15.852Z,13.47
2022-12-25T03:24:18.509Z,14.00
2022-12-25T03:26:56.475Z,13.10
2022-12-25T03:29:43.514Z,13.27
2022-12-25T03:32:23.421Z,12.97
2022-12-25T03:35:21.787Z,14.20
2022-12-25T03:38:27.443Z,14.10
2022-12-25T03:41:24.352Z,12.80
2022-12-25T03:44:30.455Z,12.60
2022-12-25T03:47:25.778Z,13.13
2022-12-25T03:50:22.144Z,13.73
2022-12-25T03:53:13.115Z,15.70
2022-12-25T03:56:15.103Z,15.27
2022-12-25T03:59:10.795Z,15.83
2022-12-25T04:01:57.025Z,15.97
2022-12-25T04:04:43.216Z,15.73
2022-12-25T04:07:30.900Z,15.43
2022-12-25T04:10:31.826Z,15.47
2022-12-25T04:13:18.192Z,14.63
2022-12-25T04:16:04.694Z,13.60
2022-12-25T04:18:50.823Z,13.77
2022-12-25T04:21:36.849Z,14.70
2022-12-25T04:24:25.557Z,13.07
2022-12-25T04:27:11.590Z,13.57
2022-12-25T04:29:57.545Z,13.53
2022-12-25T04:32:43.743Z,13.13
2022-12-25T04:35:30.136Z,13.07
2022-12-25T04:37:58.851Z,13.70
2022-12-25T04:40:29.162Z,13.77
2022-12-25T04:42:57.799Z,13.77
2022-12-25T04:45:26.436Z,12.53
2022-12-25T04:47:55.034Z,14.13
2022-12-25T04:50:23.632Z,13.50
2022-12-25T04:52:52.353Z,11.73
2022-12-25T04:55:21.050Z,12.00
2022-12-25T04:57:51.097Z,11.30
2022-12-25T05:00:20.333Z,11.53
2022-12-25T05:02:49.166Z,12.23
2022-12-25T05:05:18.187Z,11.93
2022-12-25T05:07:46.960Z,12.53
2022-12-25T05:10:16.820Z,12.60
2022-12-25T05:12:45.638Z,10.87
2022-12-25T05:15:15.683Z,13.33
2022-12-25T05:17:44.305Z,10.43
2022-12-25T05:20:13.189Z,12.20
2022-12-25T05:22:43.349Z,11.07
2022-12-25T05:25:12.078Z,11.07
2022-12-25T05:27:40.780Z,10.97
2022-12-25T05:30:10.578Z,12.07
2022-12-25T05:32:40.500Z,11.43
2022-12-25T05:35:10.054Z,11.10
2022-12-25T05:37:38.934Z,11.00
2022-12-25T05:40:08.708Z,10.97
2022-12-25T05:42:37.338Z,11.57
2022-12-25T05:45:06.996Z,11.83
2022-12-25T05:47:35.682Z,10.80
2022-12-25T05:50:06.972Z,10.73
2022-12-25T05:52:36.415Z,11.27
2022-12-25T05:55:08.810Z,11.73
2022-12-25T05:57:37.535Z,10.67
2022-12-25T06:00:10.536Z,12.53
2022-12-25T06:02:39.421Z,12.07
2022-12-25T06:05:10.849Z,11.23
2022-12-25T06:07:39.431Z,11.00
2022-12-25T06:10:09.997Z,11.43
2022-12-25T06:12:39.284Z,11.33
2022-12-25T06:15:09.381Z,10.73
2022-12-25T06:17:39.971Z,11.60
2022-12-25T06:20:10.936Z,10.27
2022-12-25T06:22:43.166Z,11.43
2022-12-25T06:25:14.484Z,11.73
2022-12-25T06:27:43.611Z,10.20
2022-12-25T06:30:12.748Z,11.43
2022-12-25T06:32:41.429Z,10.13
2022-12-25T06:35:11.532Z,11.47
2022-12-25T06:37:40.193Z,10.57
2022-12-25T06:40:09.984Z,11.33
2022-12-25T06:42:38.535Z,10.33
2022-12-25T06:45:07.984Z,11.37
2022-12-25T06:47:40.157Z,11.93
2022-12-25T06:50:09.481Z,10.53
2022-12-25T06:52:39.620Z,11.87
2022-12-25T06:55:08.987Z,11.40
2022-12-25T06:57:37.915Z,10.97
2022-12-25T07:00:11.317Z,12.13
2022-12-25T07:02:41.172Z,12.13
2022-12-25T07:05:10.300Z,13.67
2022-12-25T07:07:40.446Z,12.97
2022-12-25T07:10:10.160Z,13.40
2022-12-25T07:12:38.942Z,10.47
2022-12-25T07:15:08.894Z,12.10
2022-12-25T07:17:37.597Z,12.10
2022-12-25T07:20:07.539Z,13.17
2022-12-25T07:22:36.196Z,12.60
2022-12-25T07:25:06.963Z,12.10
2022-12-25T07:27:35.561Z,13.57
2022-12-25T07:30:04.415Z,12.33
2022-12-25T07:32:33.291Z,13.50
2022-12-25T07:35:01.974Z,13.17
2022-12-25T07:37:30.598Z,11.33
2022-12-25T07:39:59.347Z,13.30
2022-12-25T07:42:29.418Z,12.10
2022-12-25T07:44:58.025Z,11.43
2022-12-25T07:47:26.743Z,15.87
2022-12-25T07:49:55.477Z,14.87
2022-12-25T07:52:24.517Z,14.00
2022-12-25T07:54:53.151Z,14.03
2022-12-25T07:57:21.832Z,13.97
2022-12-25T07:59:51.869Z,13.00
2022-12-25T08:02:26.944Z,13.70
2022-12-25T08:04:55.880Z,13.47
2022-12-25T08:07:24.724Z,13.67
2022-12-25T08:09:53.620Z,11.93
2022-12-25T08:12:22.269Z,11.90
2022-12-25T08:14:52.313Z,12.57
2022-12-25T08:17:21.014Z,12.77
2022-12-25T08:19:49.717Z,13.00
2022-12-25T08:22:18.402Z,13.37
2022-12-25T08:24:47.048Z,15.43
2022-12-25T08:27:15.718Z,12.63
2022-12-25T08:29:45.229Z,13.97
2022-12-25T08:32:15.428Z,12.27
2022-12-25T08:34:44.027Z,13.80
2022-12-25T08:37:12.613Z,15.47
2022-12-25T08:39:41.217Z,16.87
2022-12-25T08:42:09.867Z,18.90
2022-12-25T08:44:38.479Z,15.37
2022-12-25T08:47:07.137Z,15.60
2022-12-25T08:49:37.142Z,13.70
2022-12-25T08:52:06.097Z,17.77
2022-12-25T08:54:36.475Z,15.63
2022-12-25T08:57:05.204Z,14.17
2022-12-25T08:59:33.901Z,15.90
2022-12-25T09:02:02.645Z,13.80
2022-12-25T09:04:31.383Z,18.40
2022-12-25T09:07:02.718Z,13.20
2022-12-25T09:09:31.661Z,13.67
2022-12-25T09:12:00.284Z,14.03
2022-12-25T09:14:29.129Z,15.73
2022-12-25T09:16:57.816Z,11.43
2022-12-25T09:19:26.661Z,12.53
2022-12-25T09:21:55.551Z,12.73
2022-12-25T09:24:25.956Z,12.03
2022-12-25T09:26:55.768Z,15.10
2022-12-25T09:29:24.635Z,15.00
2022-12-25T09:31:53.279Z,14.73
2022-12-25T09:34:21.865Z,12.13
2022-12-25T09:36:50.634Z,11.60
2022-12-25T09:39:19.262Z,15.60
2022-12-25T09:41:57.429Z,12.87
2022-12-25T09:44:29.847Z,14.20
2022-12-25T09:47:01.980Z,13.03
2022-12-25T09:49:38.358Z,13.90
2022-12-25T09:52:12.518Z,12.47
2022-12-25T09:54:48.134Z,12.67
2022-12-25T09:57:18.260Z,11.57
2022-12-25T09:59:47.687Z,11.97
2022-12-25T10:02:40.620Z,12.60
2022-12-25T10:05:30.363Z,14.20
2022-12-25T10:08:06.994Z,12.87
2022-12-25T10:10:51.971Z,11.83
2022-12-25T10:13:39.643Z,12.00
2022-12-25T10:16:19.320Z,13.30
2022-12-25T10:18:58.865Z,12.17
2022-12-25T10:21:28.786Z,12.53
2022-12-25T10:24:07.825Z,11.37
2022-12-25T10:26:36.581Z,11.83
2022-12-25T10:29:13.218Z,12.83
2022-12-25T10:31:43.048Z,11.63
2022-12-25T10:34:14.767Z,11.87
2022-12-25T10:36:45.852Z,11.23
2022-12-25T10:39:18.392Z,12.13
2022-12-25T10:42:10.503Z,12.20
2022-12-25T10:44:40.562Z,11.90
2022-12-25T10:47:09.429Z,12.90
2022-12-25T10:49:39.945Z,12.33
2022-12-25T10:52:21.513Z,13.40
2022-12-25T10:54:50.105Z,11.27
2022-12-25T10:57:21.654Z,12.17
2022-12-25T10:59:55.895Z,12.87
2022-12-25T11:02:28.228Z,11.70
2022-12-25T11:05:02.855Z,10.63
2022-12-25T11:07:32.439Z,11.97
2022-12-25T11:10:05.554Z,12.30
2022-12-25T11:12:37.998Z,11.47
2022-12-25T11:15:38.718Z,13.77
2022-12-25T11:18:21.487Z,13.37
2022-12-25T11:20:51.924Z,13.23
2022-12-25T11:23:22.354Z,12.10
2022-12-25T11:25:58.612Z,10.83
2022-12-25T11:28:28.421Z,13.27
2022-12-25T11:31:02.618Z,12.20
2022-12-25T11:33:36.616Z,14.17
2022-12-25T11:36:10.536Z,15.17
2022-12-25T11:38:39.119Z,12.83
2022-12-25T11:41:10.533Z,12.87
2022-12-25T11:43:46.714Z,13.60
2022-12-25T11:46:22.830Z,12.97
2022-12-25T11:48:56.357Z,13.00
2022-12-25T11:51:28.377Z,12.37
2022-12-25T11:54:01.025Z,11.30
2022-12-25T11:56:32.030Z,11.80
2022-12-25T11:59:04.859Z,13.77
2022-12-25T12:01:38.283Z,13.10
2022-12-25T12:04:15.662Z,14.30
2022-12-25T12:06:49.637Z,13.87
2022-12-25T12:09:30.729Z,12.50
2022-12-25T12:12:06.401Z,11.87
2022-12-25T12:14:49.038Z,13.53
2022-12-25T12:17:20.144Z,14.30
2022-12-25T12:19:48.890Z,12.20
2022-12-25T12:22:21.890Z,12.50
2022-12-25T12:24:56.189Z,12.23
2022-12-25T12:27:28.735Z,21.33
2022-12-25T12:29:59.147Z,16.23
2022-12-25T12:32:37.802Z,16.37
2022-12-25T12:35:11.365Z,13.60
2022-12-25T12:37:41.832Z,15.57
2022-12-25T12:40:25.995Z,13.00
2022-12-25T12:42:55.430Z,13.93
2022-12-25T12:45:28.934Z,14.30
2022-12-25T12:47:59.396Z,14.47
2022-12-25T12:50:37.447Z,14.63
2022-12-25T12:53:30.669Z,14.00
2022-12-25T12:56:10.852Z,14.33
2022-12-25T12:58:45.249Z,13.60
2022-12-25T13:01:20.657Z,14.60
2022-12-25T13:04:21.378Z,13.07
2022-12-25T13:06:57.265Z,12.57
2022-12-25T13:09:37.677Z,12.50
2022-12-25T13:12:08.278Z,12.33
2022-12-25T13:14:38.038Z,13.80
2022-12-25T13:17:08.830Z,14.67
2022-12-25T13:19:43.625Z,13.10
2022-12-25T13:22:25.592Z,15.37
2022-12-25T13:24:58.650Z,12.87
2022-12-25T13:27:29.292Z,14.93
2022-12-25T13:29:58.688Z,15.03
2022-12-25T13:32:30.692Z,13.17
2022-12-25T13:35:01.477Z,16.27
2022-12-25T13:37:32.354Z,13.97
2022-12-25T13:40:04.632Z,15.00
2022-12-25T13:42:36.257Z,17.67
2022-12-25T13:45:07.239Z,14.87
2022-12-25T13:47:37.864Z,14.87
2022-12-25T13:50:22.091Z,14.90
2022-12-25T13:52:51.631Z,13.77
2022-12-25T13:55:22.846Z,14.43
2022-12-25T13:57:54.864Z,14.80
2022-12-25T14:00:28.131Z,14.97
2022-12-25T14:02:57.250Z,15.67
2022-12-25T14:05:37.685Z,14.57
2022-12-25T14:08:17.099Z,14.97
2022-12-25T14:10:50.382Z,16.00
2022-12-25T14:13:21.084Z,16.83
2022-12-25T14:15:51.251Z,14.47
2022-12-25T14:18:21.640Z,16.03
2022-12-25T14:21:00.712Z,15.37
2022-12-25T14:23:41.329Z,18.90
2022-12-25T14:26:16.842Z,16.87
2022-12-25T14:28:49.372Z,17.87
2022-12-25T14:31:18.473Z,16.27
2022-12-25T14:33:47.537Z,14.80
2022-12-25T14:36:17.712Z,14.03
2022-12-25T14:38:56.273Z,13.37
2022-12-25T14:41:34.327Z,16.10
2022-12-25T14:44:04.707Z,16.40
2022-12-25T14:46:34.947Z,16.90
2022-12-25T14:49:07.221Z,20.50
2022-12-25T14:51:40.134Z,23.17
2022-12-25T14:54:20.352Z,20.30
2022-12-25T14:56:51.071Z,16.37
2022-12-25T14:59:21.638Z,18.77
2022-12-25T15:01:54.830Z,17.53
2022-12-25T15:04:24.789Z,16.67
2022-12-25T15:06:57.743Z,15.57
2022-12-25T15:09:27.138Z,14.63
2022-12-25T15:11:57.172Z,13.83
2022-12-25T15:14:26.931Z,15.33
2022-12-25T15:17:01.666Z,13.87
2022-12-25T15:19:37.726Z,17.67
2022-12-25T15:22:11.390Z,16.60
2022-12-25T15:24:40.007Z,17.07
2022-12-25T15:27:16.673Z,18.40
2022-12-25T15:30:08.999Z,17.80
2022-12-25T15:32:34.076Z,16.40
2022-12-25T15:35:02.766Z,16.97
2022-12-25T15:37:32.948Z,14.60
2022-12-25T15:40:02.361Z,15.97
2022-12-25T15:42:31.161Z,17.03
2022-12-25T15:44:59.834Z,15.57
2022-12-25T15:47:28.467Z,13.93
2022-12-25T15:49:57.395Z,15.40
2022-12-25T15:52:28.517Z,20.00
2022-12-25T15:54:58.501Z,19.70
2022-12-25T15:57:27.550Z,16.10
2022-12-25T15:59:58.962Z,20.90
2022-12-25T16:02:28.368Z,16.77
2022-12-25T16:04:57.159Z,18.33
2022-12-25T16:07:27.780Z,17.70
2022-12-25T16:10:00.964Z,16.13
2022-12-25T16:12:29.712Z,16.70
2022-12-25T16:14:58.277Z,19.23
2022-12-25T16:17:27.073Z,14.83
2022-12-25T16:19:58.437Z,18.00
2022-12-25T16:22:27.387Z,15.87
2022-12-25T16:24:56.445Z,16.90
2022-12-25T16:27:26.903Z,16.33
2022-12-25T16:29:56.087Z,14.00
2022-12-25T16:32:27.120Z,20.10
2022-12-25T16:34:55.972Z,23.73
2022-12-25T16:37:24.720Z,16.10
2022-12-25T16:39:53.489Z,18.83
2022-12-25T16:42:22.216Z,20.70
2022-12-25T16:44:52.299Z,15.97
2022-12-25T16:47:21.218Z,18.23
2022-12-25T16:49:49.812Z,17.10
2022-12-25T16:52:18.538Z,17.23
2022-12-25T16:54:47.362Z,16.53
2022-12-25T16:57:16.166Z,17.53
2022-12-25T16:59:44.823Z,19.57
2022-12-25T17:02:18.479Z,20.80
2022-12-25T17:04:48.128Z,21.60
2022-12-25T17:07:18.084Z,17.00
2022-12-25T17:09:49.004Z,14.97
2022-12-25T17:12:18.273Z,17.77
2022-12-25T17:14:46.956Z,18.83
2022-12-25T17:17:17.107Z,21.30
2022-12-25T17:19:45.900Z,22.73
2022-12-25T17:22:14.586Z,30.07
2022-12-25T17:24:43.239Z,29.13
2022-12-25T17:27:11.850Z,33.07
2022-12-25T17:29:41.092Z,36.33
2022-12-25T17:32:10.646Z,32.10
2022-12-25T17:34:40.696Z,23.87
2022-12-25T17:37:09.731Z,33.40
2022-12-25T17:39:39.599Z,33.70
2022-12-25T17:42:08.191Z,32.30
2022-12-25T17:44:36.835Z,30.73
2022-12-25T17:47:05.726Z,24.87
2022-12-25T17:49:34.434Z,21.50
2022-12-25T17:52:04.439Z,21.57
2022-12-25T17:54:33.147Z,22.10
2022-12-25T17:57:01.832Z,19.70
2022-12-25T17:59:30.432Z,16.93
2022-12-25T18:01:59.270Z,13.30
2022-12-25T18:04:28.186Z,19.03
2022-12-25T18:06:57.109Z,18.63
2022-12-25T18:09:27.332Z,21.50
2022-12-25T18:11:59.169Z,27.83
2022-12-25T18:14:27.898Z,23.07
2022-12-25T18:16:57.321Z,23.17
2022-12-25T18:19:26.130Z,22.83
2022-12-25T18:21:54.860Z,20.37
2022-12-25T18:24:25.475Z,23.60
2022-12-25T18:26:58.507Z,22.00
2022-12-25T18:29:27.196Z,19.27
2022-12-25T18:31:56.083Z,24.80
2022-12-25T18:34:24.788Z,23.37
2022-12-25T18:36:53.647Z,22.57
2022-12-25T18:39:22.252Z,26.77
2022-12-25T18:42:08.256Z,31.97
2022-12-25T18:44:38.387Z,32.63
2022-12-25T18:47:07.163Z,24.33
2022-12-25T18:49:36.053Z,34.43
2022-12-25T18:52:50.372Z,26.97
2022-12-25T18:54:56.646Z,20.40
2022-12-25T18:57:26.135Z,26.27
2022-12-25T18:59:56.294Z,30.50
2022-12-25T19:02:25.166Z,30.17
2022-12-25T19:04:54.146Z,31.17
2022-12-25T19:07:23.855Z,29.00
2022-12-25T19:09:52.649Z,34.83
2022-12-25T19:12:21.420Z,19.80
2022-12-25T19:14:50.549Z,29.30
2022-12-25T19:17:20.627Z,33.50
2022-12-25T19:19:50.527Z,32.63
2022-12-25T19:22:19.189Z,33.63
2022-12-25T19:24:47.852Z,33.80
2022-12-25T19:27:16.483Z,31.80
2022-12-25T19:29:45.202Z,30.53
2022-12-25T19:32:13.856Z,30.30
2022-12-25T19:34:43.794Z,40.80
2022-12-25T19:37:12.541Z,40.30
2022-12-25T19:39:46.102Z,36.70
2022-12-25T19:42:14.989Z,32.57
2022-12-25T19:44:44.246Z,32.37
2022-12-25T19:47:13.140Z,26.63
2022-12-25T19:49:43.997Z,27.43
2022-12-25T19:52:14.574Z,25.90
2022-12-25T19:54:43.224Z,25.70
2022-12-25T19:57:11.845Z,32.57
2022-12-25T19:59:40.547Z,27.03
2022-12-25T20:02:10.284Z,26.63
2022-12-25T20:04:39.101Z,25.93
2022-12-25T20:07:09.126Z,30.93
2022-12-25T20:09:37.754Z,28.33
2022-12-25T20:12:08.555Z,27.17
2022-12-25T20:14:37.388Z,25.53
2022-12-25T20:17:09.457Z,23.83
2022-12-25T20:19:42.389Z,26.97
2022-12-25T20:22:12.482Z,30.63
2022-12-25T20:24:41.121Z,30.00
2022-12-25T20:27:09.999Z,26.93
2022-12-25T20:29:38.800Z,26.07
2022-12-25T20:32:07.642Z,28.90
2022-12-25T20:34:36.379Z,26.90
2022-12-25T20:37:05.143Z,26.83
2022-12-25T20:39:35.317Z,24.70
2022-12-25T20:42:03.948Z,28.43
2022-12-25T20:44:32.544Z,26.73
2022-12-25T20:47:02.062Z,28.47
2022-12-25T20:49:32.717Z,29.37
2022-12-25T20:52:05.339Z,19.87
2022-12-25T20:54:36.095Z,15.90
2022-12-25T20:58:01.136Z,25.53
2022-12-25T21:00:29.851Z,23.63
2022-12-25T21:02:58.661Z,23.77
2022-12-25T21:05:27.428Z,25.60
2022-12-25T21:07:56.285Z,23.70
2022-12-25T21:10:26.749Z,26.33
2022-12-25T21:12:55.747Z,27.43
2022-12-25T21:15:24.821Z,23.43
2022-12-25T21:17:56.066Z,27.30
2022-12-25T21:20:24.896Z,21.67
2022-12-25T21:22:53.874Z,27.13
2022-12-25T21:25:22.535Z,25.77
2022-12-25T21:27:52.584Z,25.33
2022-12-25T21:30:21.290Z,21.77
2022-12-25T21:33:07.148Z,21.53
2022-12-25T21:35:37.901Z,28.87
2022-12-25T21:38:06.888Z,30.37
2022-12-25T21:40:36.984Z,21.40
2022-12-25T21:43:07.517Z,19.13
2022-12-25T21:45:36.179Z,27.53
2022-12-25T21:48:05.186Z,25.80
2022-12-25T21:50:52.126Z,24.30
2022-12-25T21:53:21.758Z,24.20
2022-12-25T21:56:00.730Z,17.40
2022-12-25T21:58:31.127Z,18.20
2022-12-25T22:01:03.586Z,16.20
2022-12-25T22:03:32.248Z,15.00
2022-12-25T22:06:21.595Z,16.80
2022-12-25T22:08:50.791Z,15.23
2022-12-25T22:11:37.018Z,13.73
2022-12-25T22:14:50.168Z,11.97
2022-12-25T22:17:31.453Z,14.27
2022-12-25T22:20:00.319Z,12.27
2022-12-25T22:22:30.534Z,13.00
2022-12-25T22:25:00.812Z,11.93
2022-12-25T22:27:33.383Z,11.83
2022-12-25T22:30:04.055Z,13.30
2022-12-25T22:32:32.683Z,13.80
2022-12-25T22:35:01.915Z,13.73
2022-12-25T22:37:30.713Z,13.47
2022-12-25T22:40:01.371Z,14.83
2022-12-25T22:42:30.350Z,13.47
2022-12-25T22:44:59.329Z,13.13
2022-12-25T22:47:29.384Z,13.97
2022-12-25T22:49:58.081Z,14.30
2022-12-25T22:52:27.261Z,13.00
2022-12-25T22:54:56.132Z,14.13
2022-12-25T22:57:27.441Z,12.83
2022-12-25T22:59:56.249Z,13.83
2022-12-25T23:02:25.243Z,13.87
2022-12-25T23:04:55.599Z,11.70
2022-12-25T23:07:24.554Z,12.27
2022-12-25T23:09:53.126Z,14.00
2022-12-25T23:12:39.344Z,11.87
2022-12-25T23:15:09.071Z,14.23
2022-12-25T23:17:55.115Z,13.30
2022-12-25T23:20:42.479Z,12.23
2022-12-25T23:23:32.763Z,14.60
2022-12-25T23:26:10.540Z,12.37
2022-12-25T23:28:58.042Z,14.10
2022-12-25T23:31:30.180Z,12.60
2022-12-25T23:33:59.458Z,12.67
2022-12-25T23:36:29.802Z,12.87
2022-12-25T23:39:04.695Z,12.00
2022-12-25T23:41:35.877Z,13.27
2022-12-25T23:44:04.637Z,12.83
2022-12-25T23:46:33.437Z,12.90
2022-12-25T23:49:02.045Z,12.27
2022-12-25T23:51:32.171Z,12.70
2022-12-25T23:54:00.831Z,12.87
2022-12-25T23:56:29.604Z,13.10
2022-12-25T23:58:58.719Z,14.57
